Time,TemperatureF,DewpointF,PressureIn,WindDirection,WindDirectionDegrees,WindSpeedMPH,WindSpeedGustMPH,Humidity,HourlyPrecipIn,Conditions,Clouds,dailyrainin,SoftwareType,DateUTC
2014-12-22 00:02:00,32.8,23.7,29.68,WNW,294,8.0,9.0,69,0.00,,,0.00,Wunderground v.1.15,2014-12-22 07:02:00,
2014-12-22 00:07:00,32.5,23.5,29.68,West,272,8.0,11.0,69,0.00,,,0.00,Wunderground v.1.15,2014-12-22 07:07:00,
2014-12-22 00:12:00,32.4,24.0,29.68,WNW,302,8.0,8.0,71,0.00,,,0.00,Wunderground v.1.15,2014-12-22 07:12:00,
2014-12-22 00:20:00,31.9,24.2,29.67,West,263,8.0,16.0,73,0.00,,,0.00,Wunderground v.1.15,2014-12-22 07:20:00,
2014-12-22 00:25:00,31.9,24.6,29.67,WSW,243,7.0,10.0,74,0.00,,,0.00,Wunderground v.1.15,2014-12-22 07:25:00,
2014-12-22 00:30:00,31.8,24.5,29.67,WSW,241,8.0,8.0,74,0.00,,,0.00,Wunderground v.1.15,2014-12-22 07:30:00,
2014-12-22 00:35:00,31.6,24.3,29.67,SW,233,7.0,9.0,74,0.00,,,0.00,Wunderground v.1.15,2014-12-22 07:35:00,
2014-12-22 00:40:00,31.5,24.5,29.67,SW,224,5.0,6.0,75,0.00,,,0.00,Wunderground v.1.15,2014-12-22 07:40:00,
2014-12-22 00:46:00,31.3,24.9,29.68,WSW,243,5.0,8.0,77,0.00,,,0.00,Wunderground v.1.15,2014-12-22 07:46:00,
2014-12-22 00:51:00,31.3,24.9,29.68,WSW,248,5.0,5.0,77,0.00,,,0.00,Wunderground v.1.15,2014-12-22 07:51:00,
2014-12-22 00:56:00,31.3,24.9,29.68,WSW,253,4.0,7.0,77,0.00,,,0.00,Wunderground v.1.15,2014-12-22 07:56:00,
2014-12-22 01:02:00,31.3,24.9,29.68,SW,234,4.0,7.0,77,0.00,,,0.00,Wunderground v.1.15,2014-12-22 08:02:00,
2014-12-22 01:10:00,31.3,24.9,29.68,SW,232,4.0,4.0,77,0.00,,,0.00,Wunderground v.1.15,2014-12-22 08:10:00,
2014-12-22 01:15:00,31.3,25.2,29.68,WSW,237,3.0,4.0,78,0.00,,,0.00,Wunderground v.1.15,2014-12-22 08:15:00,
2014-12-22 01:20:00,31.3,25.2,29.68,WSW,237,2.0,2.0,78,0.00,,,0.00,Wunderground v.1.15,2014-12-22 08:20:00,
2014-12-22 01:25:00,31.5,25.1,29.68,SW,227,9.0,9.0,77,0.00,,,0.00,Wunderground v.1.15,2014-12-22 08:25:00,
2014-12-22 01:31:00,31.8,25.1,29.68,SW,236,5.0,6.0,76,0.00,,,0.00,Wunderground v.1.15,2014-12-22 08:31:00,
2014-12-22 01:36:00,31.9,25.2,29.68,SW,232,6.0,9.0,76,0.00,,,0.00,Wunderground v.1.15,2014-12-22 08:36:00,
2014-12-22 01:41:00,32.1,25.4,29.68,WSW,246,7.0,11.0,76,0.00,,,0.00,Wunderground v.1.15,2014-12-22 08:41:00,
2014-12-22 01:47:00,32.2,25.5,29.69,WSW,237,6.0,11.0,76,0.00,,,0.00,Wunderground v.1.15,2014-12-22 08:47:00,
2014-12-22 01:52:00,31.9,25.2,29.69,West,260,5.0,7.0,76,0.00,,,0.00,Wunderground v.1.15,2014-12-22 08:52:00,
2014-12-22 01:57:00,31.9,25.2,29.69,WSW,240,5.0,7.0,76,0.00,,,0.00,Wunderground v.1.15,2014-12-22 08:57:00,
2014-12-22 02:05:00,31.9,22.9,29.69,West,271,5.0,9.0,69,0.00,,,0.00,Wunderground v.1.15,2014-12-22 09:05:00,
2014-12-22 02:10:00,31.9,22.5,29.69,SW,232,7.0,9.0,68,0.00,,,0.00,Wunderground v.1.15,2014-12-22 09:10:00,
2014-12-22 02:15:00,31.9,22.5,29.70,WSW,250,7.0,9.0,68,0.00,,,0.00,Wunderground v.1.15,2014-12-22 09:15:00,
2014-12-22 02:20:00,31.9,22.2,29.70,WSW,257,7.0,7.0,67,0.00,,,0.00,Wunderground v.1.15,2014-12-22 09:20:00,
2014-12-22 02:25:00,31.9,21.8,29.70,West,275,7.0,11.0,66,0.00,,,0.00,Wunderground v.1.15,2014-12-22 09:25:00,
2014-12-22 02:30:00,32.1,22.0,29.70,WSW,244,8.0,14.0,66,0.00,,,0.00,Wunderground v.1.15,2014-12-22 09:30:00,
2014-12-22 02:36:00,32.1,22.4,29.70,WSW,250,6.0,14.0,67,0.00,,,0.00,Wunderground v.1.15,2014-12-22 09:36:00,
2014-12-22 02:41:00,32.1,22.4,29.70,WSW,241,7.0,8.0,67,0.00,,,0.00,Wunderground v.1.15,2014-12-22 09:41:00,
2014-12-22 02:46:00,31.9,22.2,29.70,WSW,241,7.0,14.0,67,0.00,,,0.00,Wunderground v.1.15,2014-12-22 09:46:00,
2014-12-22 02:52:00,31.8,22.1,29.70,WSW,244,8.0,8.0,67,0.00,,,0.00,Wunderground v.1.15,2014-12-22 09:52:00,
2014-12-22 02:57:00,31.5,22.1,29.70,West,265,8.0,14.0,68,0.00,,,0.00,Wunderground v.1.15,2014-12-22 09:57:00,
2014-12-22 03:02:00,31.2,21.9,29.70,SW,234,8.0,9.0,68,0.00,,,0.00,Wunderground v.1.15,2014-12-22 10:02:00,
2014-12-22 03:10:00,31.2,21.9,29.70,WSW,246,7.0,7.0,68,0.00,,,0.00,Wunderground v.1.15,2014-12-22 10:10:00,
2014-12-22 03:15:00,31.0,22.0,29.72,WNW,288,7.0,9.0,69,0.00,,,0.00,Wunderground v.1.15,2014-12-22 10:15:00,
2014-12-22 03:21:00,30.9,21.9,29.72,WNW,302,7.0,9.0,69,0.00,,,0.00,Wunderground v.1.15,2014-12-22 10:21:00,
2014-12-22 03:26:00,30.9,21.9,29.72,WSW,256,8.0,9.0,69,0.00,,,0.00,Wunderground v.1.15,2014-12-22 10:26:00,
2014-12-22 03:31:00,30.7,21.0,29.72,SW,234,8.0,9.0,67,0.00,,,0.00,Wunderground v.1.15,2014-12-22 10:31:00,
2014-12-22 03:37:00,30.6,20.2,29.72,WSW,248,6.0,10.0,65,0.00,,,0.00,Wunderground v.1.15,2014-12-22 10:37:00,
2014-12-22 03:42:00,30.3,19.9,29.72,WSW,250,3.0,6.0,65,0.00,,,0.00,Wunderground v.1.15,2014-12-22 10:42:00,
2014-12-22 03:50:00,30.3,19.9,29.72,West,261,3.0,7.0,65,0.00,,,0.00,Wunderground v.1.15,2014-12-22 10:50:00,
2014-12-22 03:55:00,30.3,19.2,29.72,WSW,237,3.0,9.0,63,0.00,,,0.00,Wunderground v.1.15,2014-12-22 10:55:00,
2014-12-22 04:00:00,30.3,18.8,29.72,West,265,5.0,5.0,62,0.00,,,0.00,Wunderground v.1.15,2014-12-22 11:00:00,
2014-12-22 04:07:00,30.3,18.8,29.72,WSW,237,6.0,8.0,62,0.00,,,0.00,Wunderground v.1.15,2014-12-22 11:07:00,
2014-12-22 04:15:00,30.4,18.5,29.73,West,261,4.0,8.0,61,0.00,,,0.00,Wunderground v.1.15,2014-12-22 11:15:00,
2014-12-22 04:20:00,30.6,18.7,29.73,SW,229,5.0,7.0,61,0.00,,,0.00,Wunderground v.1.15,2014-12-22 11:20:00,
2014-12-22 04:25:00,31.0,18.3,29.73,SSW,212,4.0,7.0,59,0.00,,,0.00,Wunderground v.1.15,2014-12-22 11:25:00,
2014-12-22 04:31:00,30.9,18.2,29.72,SW,227,3.0,9.0,59,0.00,,,0.00,Wunderground v.1.15,2014-12-22 11:31:00,
2014-12-22 04:36:00,30.6,18.0,29.72,WNW,301,3.0,9.0,59,0.00,,,0.00,Wunderground v.1.15,2014-12-22 11:36:00,
2014-12-22 04:42:00,30.4,17.8,29.72,WSW,244,3.0,6.0,59,0.00,,,0.00,Wunderground v.1.15,2014-12-22 11:42:00,
2014-12-22 04:47:00,30.3,19.2,29.73,SW,232,3.0,6.0,63,0.00,,,0.00,Wunderground v.1.15,2014-12-22 11:47:00,
2014-12-22 04:55:00,30.3,19.2,29.73,WSW,251,2.0,3.0,63,0.00,,,0.00,Wunderground v.1.15,2014-12-22 11:55:00,
2014-12-22 05:00:00,30.3,19.2,29.73,WNW,299,6.0,6.0,63,0.00,,,0.00,Wunderground v.1.15,2014-12-22 12:00:00,
2014-12-22 05:07:00,30.1,19.0,29.73,West,275,4.0,6.0,63,0.00,,,0.00,Wunderground v.1.15,2014-12-22 12:07:00,
2014-12-22 05:12:00,30.0,19.7,29.73,SW,224,5.0,6.0,65,0.00,,,0.00,Wunderground v.1.15,2014-12-22 12:12:00,
2014-12-22 05:20:00,30.0,19.7,29.77,WSW,248,4.0,6.0,65,0.00,,,0.00,Wunderground v.1.15,2014-12-22 12:20:00,
2014-12-22 05:25:00,30.1,19.4,29.77,West,281,9.0,9.0,64,0.00,,,0.00,Wunderground v.1.15,2014-12-22 12:25:00,
2014-12-22 05:30:00,30.0,19.3,29.77,WSW,257,4.0,6.0,64,0.00,,,0.00,Wunderground v.1.15,2014-12-22 12:30:00,
2014-12-22 05:35:00,30.0,19.3,29.77,WSW,254,3.0,6.0,64,0.00,,,0.00,Wunderground v.1.15,2014-12-22 12:35:00,
2014-12-22 05:41:00,30.0,19.7,29.77,WSW,247,2.0,2.0,65,0.00,,,0.00,Wunderground v.1.15,2014-12-22 12:41:00,
2014-12-22 05:46:00,30.0,19.7,29.77,West,271,2.0,6.0,65,0.00,,,0.00,Wunderground v.1.15,2014-12-22 12:46:00,
2014-12-22 05:52:00,29.5,19.5,29.77,West,261,4.0,4.0,66,0.00,,,0.00,Wunderground v.1.15,2014-12-22 12:52:00,
2014-12-22 05:57:00,29.1,19.8,29.77,West,270,4.0,7.0,68,0.00,,,0.00,Wunderground v.1.15,2014-12-22 12:57:00,
2014-12-22 06:05:00,28.7,19.5,29.77,West,274,3.0,8.0,68,0.00,,,0.00,Wunderground v.1.15,2014-12-22 13:05:00,
2014-12-22 06:10:00,28.4,19.5,29.77,WNW,287,3.0,8.0,69,0.00,,,0.00,Wunderground v.1.15,2014-12-22 13:10:00,
2014-12-22 06:15:00,28.2,19.3,29.80,West,260,2.0,4.0,69,0.00,,,0.00,Wunderground v.1.15,2014-12-22 13:15:00,
2014-12-22 06:20:00,28.4,19.5,29.80,WNW,294,1.0,1.0,69,0.00,,,0.00,Wunderground v.1.15,2014-12-22 13:20:00,
2014-12-22 06:25:00,28.4,19.2,29.80,West,280,1.0,1.0,68,0.00,,,0.00,Wunderground v.1.15,2014-12-22 13:25:00,
2014-12-22 06:31:00,28.4,19.2,29.79,West,281,0.0,1.0,68,0.00,,,0.00,Wunderground v.1.15,2014-12-22 13:31:00,
2014-12-22 06:36:00,28.4,19.2,29.79,West,280,0.0,4.0,68,0.00,,,0.00,Wunderground v.1.15,2014-12-22 13:36:00,
2014-12-22 06:41:00,28.4,19.2,29.79,West,280,0.0,0.0,68,0.00,,,0.00,Wunderground v.1.15,2014-12-22 13:41:00,
2014-12-22 06:46:00,28.4,19.2,29.79,West,280,0.0,0.0,68,0.00,,,0.00,Wunderground v.1.15,2014-12-22 13:46:00,
2014-12-22 06:52:00,28.4,19.2,29.79,West,280,0.0,0.0,68,0.00,,,0.00,Wunderground v.1.15,2014-12-22 13:52:00,
2014-12-22 06:57:00,28.4,19.2,29.79,West,280,0.0,0.0,68,0.00,,,0.00,Wunderground v.1.15,2014-12-22 13:57:00,
2014-12-22 07:05:00,28.2,19.3,29.80,West,280,0.0,0.0,69,0.00,,,0.00,Wunderground v.1.15,2014-12-22 14:05:00,
2014-12-22 07:10:00,28.2,19.3,29.80,West,280,0.0,0.0,69,0.00,,,0.00,Wunderground v.1.15,2014-12-22 14:10:00,
2014-12-22 07:16:00,28.1,19.2,29.78,West,280,0.0,0.0,69,0.00,,,0.00,Wunderground v.1.15,2014-12-22 14:16:00,
2014-12-22 07:21:00,28.1,19.2,29.78,West,280,0.0,0.0,69,0.00,,,0.00,Wunderground v.1.15,2014-12-22 14:21:00,
2014-12-22 07:26:00,28.1,19.2,29.78,West,280,0.0,0.0,69,0.00,,,0.00,Wunderground v.1.15,2014-12-22 14:26:00,
2014-12-22 07:32:00,28.2,19.3,29.78,WNW,287,0.0,0.0,69,0.00,,,0.00,Wunderground v.1.15,2014-12-22 14:32:00,
2014-12-22 07:37:00,28.5,18.9,29.78,West,275,1.0,1.0,67,0.00,,,0.00,Wunderground v.1.15,2014-12-22 14:37:00,
2014-12-22 07:42:00,28.8,18.5,29.78,West,270,2.0,4.0,65,0.00,,,0.00,Wunderground v.1.15,2014-12-22 14:42:00,
2014-12-22 07:47:00,29.1,18.8,29.78,WSW,251,2.0,4.0,65,0.00,,,0.00,Wunderground v.1.15,2014-12-22 14:47:00,
2014-12-22 07:55:00,29.1,18.8,29.78,WSW,253,1.0,2.0,65,0.00,,,0.00,Wunderground v.1.15,2014-12-22 14:55:00,
2014-12-22 08:00:00,29.1,18.8,29.78,WSW,253,1.0,1.0,65,0.00,,,0.00,Wunderground v.1.15,2014-12-22 15:00:00,
2014-12-22 08:05:00,29.1,18.8,29.78,WSW,253,0.0,1.0,65,0.00,,,0.00,Wunderground v.1.15,2014-12-22 15:05:00,
2014-12-22 08:10:00,29.0,19.1,29.78,WSW,254,0.0,0.0,66,0.00,,,0.00,Wunderground v.1.15,2014-12-22 15:10:00,
2014-12-22 08:15:00,29.1,19.2,29.76,SW,236,1.0,7.0,66,0.00,,,0.00,Wunderground v.1.15,2014-12-22 15:15:00,
2014-12-22 08:21:00,29.8,18.7,29.76,West,263,3.0,8.0,63,0.00,,,0.00,Wunderground v.1.15,2014-12-22 15:21:00,
2014-12-22 08:26:00,29.8,18.7,29.76,WSW,243,5.0,8.0,63,0.00,,,0.00,Wunderground v.1.15,2014-12-22 15:26:00,
2014-12-22 08:31:00,30.3,19.2,29.75,West,260,4.0,6.0,63,0.00,,,0.00,Wunderground v.1.15,2014-12-22 15:31:00,
2014-12-22 08:37:00,30.6,19.5,29.75,West,263,5.0,8.0,63,0.00,,,0.00,Wunderground v.1.15,2014-12-22 15:37:00,
2014-12-22 08:42:00,30.6,19.5,29.75,SW,215,7.0,7.0,63,0.00,,,0.00,Wunderground v.1.15,2014-12-22 15:42:00,
2014-12-22 08:50:00,30.7,20.0,29.75,WSW,237,10.0,10.0,64,0.00,,,0.00,Wunderground v.1.15,2014-12-22 15:50:00,
2014-12-22 08:55:00,30.7,20.3,29.75,West,260,4.0,9.0,65,0.00,,,0.00,Wunderground v.1.15,2014-12-22 15:55:00,
2014-12-22 09:00:00,30.7,20.3,29.75,WSW,258,3.0,11.0,65,0.00,,,0.00,Wunderground v.1.15,2014-12-22 16:00:00,
2014-12-22 09:07:00,30.6,20.9,29.75,SW,224,4.0,11.0,67,0.00,,,0.00,Wunderground v.1.15,2014-12-22 16:07:00,
2014-12-22 09:12:00,30.4,21.4,29.75,WSW,253,4.0,7.0,69,0.00,,,0.00,Wunderground v.1.15,2014-12-22 16:12:00,
2014-12-22 09:17:00,30.3,21.3,29.77,WSW,241,4.0,7.0,69,0.00,,,0.00,Wunderground v.1.15,2014-12-22 16:17:00,
2014-12-22 09:25:00,30.4,21.4,29.77,WSW,237,5.0,7.0,69,0.00,,,0.00,Wunderground v.1.15,2014-12-22 16:25:00,
2014-12-22 09:30:00,30.3,21.3,29.78,WSW,250,4.0,4.0,69,0.00,,,0.00,Wunderground v.1.15,2014-12-22 16:30:00,
2014-12-22 09:35:00,30.3,21.3,29.78,SW,233,4.0,10.0,69,0.00,,,0.00,Wunderground v.1.15,2014-12-22 16:35:00,
2014-12-22 09:40:00,30.3,21.3,29.78,WSW,243,5.0,6.0,69,0.00,,,0.00,Wunderground v.1.15,2014-12-22 16:40:00,
2014-12-22 09:46:00,30.1,21.2,29.78,WNW,288,7.0,10.0,69,0.00,,,0.00,Wunderground v.1.15,2014-12-22 16:46:00,
2014-12-22 09:52:00,30.1,21.2,29.78,South,189,8.0,9.0,69,0.00,,,0.00,Wunderground v.1.15,2014-12-22 16:52:00,
2014-12-22 09:57:00,30.1,22.5,29.78,West,280,6.0,10.0,73,0.00,,,0.00,Wunderground v.1.15,2014-12-22 16:57:00,
2014-12-22 10:02:00,30.3,22.4,29.78,SW,233,5.0,7.0,72,0.00,,,0.00,Wunderground v.1.15,2014-12-22 17:02:00,
2014-12-22 10:10:00,30.4,22.4,29.78,WSW,237,4.0,7.0,72,0.00,,,0.00,Wunderground v.1.15,2014-12-22 17:10:00,
2014-12-22 10:15:00,30.6,22.0,29.78,WNW,282,4.0,11.0,70,0.00,,,0.00,Wunderground v.1.15,2014-12-22 17:15:00,
2014-12-22 10:20:00,30.6,22.0,29.78,West,271,6.0,7.0,70,0.00,,,0.00,Wunderground v.1.15,2014-12-22 17:20:00,
2014-12-22 10:25:00,30.7,22.1,29.78,WSW,257,5.0,7.0,70,0.00,,,0.00,Wunderground v.1.15,2014-12-22 17:25:00,
2014-12-22 10:31:00,30.9,22.3,29.78,WSW,257,4.0,8.0,70,0.00,,,0.00,Wunderground v.1.15,2014-12-22 17:31:00,
2014-12-22 10:36:00,30.9,22.3,29.78,WSW,258,3.0,8.0,70,0.00,,,0.00,Wunderground v.1.15,2014-12-22 17:36:00,
2014-12-22 10:41:00,30.9,22.3,29.78,WNW,292,3.0,6.0,70,0.00,,,0.00,Wunderground v.1.15,2014-12-22 17:41:00,
2014-12-22 10:47:00,30.9,22.3,29.77,WSW,250,3.0,6.0,70,0.00,,,0.00,Wunderground v.1.15,2014-12-22 17:47:00,
2014-12-22 10:52:00,31.0,22.4,29.77,WSW,248,4.0,6.0,70,0.00,,,0.00,Wunderground v.1.15,2014-12-22 17:52:00,
2014-12-22 10:57:00,31.2,22.5,29.77,SW,226,6.0,8.0,70,0.00,,,0.00,Wunderground v.1.15,2014-12-22 17:57:00,
2014-12-22 11:05:00,31.3,22.0,29.77,SW,236,6.0,13.0,68,0.00,,,0.00,Wunderground v.1.15,2014-12-22 18:05:00,
2014-12-22 11:10:00,31.5,22.5,29.77,WSW,246,5.0,5.0,69,0.00,,,0.00,Wunderground v.1.15,2014-12-22 18:10:00,
2014-12-22 11:15:00,31.5,22.5,29.76,SW,217,3.0,8.0,69,0.00,,,0.00,Wunderground v.1.15,2014-12-22 18:15:00,
2014-12-22 11:20:00,31.6,22.2,29.76,WSW,241,5.0,8.0,68,0.00,,,0.00,Wunderground v.1.15,2014-12-22 18:20:00,
2014-12-22 11:26:00,31.8,22.4,29.76,WNW,287,5.0,9.0,68,0.00,,,0.00,Wunderground v.1.15,2014-12-22 18:26:00,
2014-12-22 11:31:00,31.9,22.5,29.76,West,277,5.0,8.0,68,0.00,,,0.00,Wunderground v.1.15,2014-12-22 18:31:00,
2014-12-22 11:37:00,32.2,22.8,29.76,WSW,258,6.0,15.0,68,0.00,,,0.00,Wunderground v.1.15,2014-12-22 18:37:00,
2014-12-22 11:42:00,32.2,22.8,29.76,West,280,8.0,9.0,68,0.00,,,0.00,Wunderground v.1.15,2014-12-22 18:42:00,
2014-12-22 11:47:00,32.1,22.7,29.76,SW,226,8.0,9.0,68,0.00,,,0.00,Wunderground v.1.15,2014-12-22 18:47:00,
2014-12-22 11:55:00,32.1,22.7,29.76,WSW,243,6.0,8.0,68,0.00,,,0.00,Wunderground v.1.15,2014-12-22 18:55:00,
2014-12-22 12:00:00,32.2,22.8,29.76,WSW,240,4.0,4.0,68,0.00,,,0.00,Wunderground v.1.15,2014-12-22 19:00:00,
2014-12-22 12:05:00,32.1,22.7,29.76,WSW,258,6.0,7.0,68,0.00,,,0.00,Wunderground v.1.15,2014-12-22 19:05:00,
2014-12-22 12:11:00,32.1,22.7,29.76,WNW,295,6.0,7.0,68,0.00,,,0.00,Wunderground v.1.15,2014-12-22 19:11:00,
2014-12-22 12:16:00,32.2,22.8,29.77,WNW,285,5.0,8.0,68,0.00,,,0.00,Wunderground v.1.15,2014-12-22 19:16:00,
2014-12-22 12:22:00,32.5,23.1,29.77,WSW,243,5.0,7.0,68,0.00,,,0.00,Wunderground v.1.15,2014-12-22 19:22:00,
2014-12-22 12:27:00,32.7,23.3,29.77,WSW,247,3.0,7.0,68,0.00,,,0.00,Wunderground v.1.15,2014-12-22 19:27:00,
2014-12-22 12:35:00,32.4,23.0,29.76,WNW,282,5.0,9.0,68,0.00,,,0.00,Wunderground v.1.15,2014-12-22 19:35:00,
2014-12-22 12:40:00,32.2,22.8,29.76,WNW,284,5.0,11.0,68,0.00,,,0.00,Wunderground v.1.15,2014-12-22 19:40:00,
2014-12-22 12:45:00,32.2,22.8,29.78,NNW,328,16.0,16.0,68,0.00,,,0.00,Wunderground v.1.15,2014-12-22 19:45:00,
2014-12-22 12:50:00,32.1,22.7,29.78,NNW,340,11.0,11.0,68,0.00,,,0.00,Wunderground v.1.15,2014-12-22 19:50:00,
2014-12-22 12:55:00,31.8,22.4,29.78,WNW,296,9.0,14.0,68,0.00,,,0.00,Wunderground v.1.15,2014-12-22 19:55:00,
2014-12-22 13:00:00,31.8,22.4,29.78,WNW,285,8.0,8.0,68,0.00,,,0.00,Wunderground v.1.15,2014-12-22 20:00:00,
2014-12-22 13:07:00,31.9,22.9,29.78,NW,326,14.0,14.0,69,0.00,,,0.00,Wunderground v.1.15,2014-12-22 20:07:00,
2014-12-22 13:12:00,31.9,22.9,29.78,WNW,298,10.0,10.0,69,0.00,,,0.00,Wunderground v.1.15,2014-12-22 20:12:00,
2014-12-22 13:17:00,32.1,23.1,29.77,WNW,298,9.0,13.0,69,0.00,,,0.00,Wunderground v.1.15,2014-12-22 20:17:00,
2014-12-22 13:25:00,32.1,22.7,29.77,WSW,237,9.0,9.0,68,0.00,,,0.00,Wunderground v.1.15,2014-12-22 20:25:00,
2014-12-22 13:30:00,31.9,22.5,29.77,WNW,298,8.0,11.0,68,0.00,,,0.00,Wunderground v.1.15,2014-12-22 20:30:00,
2014-12-22 13:35:00,31.8,22.4,29.77,West,277,9.0,11.0,68,0.00,,,0.00,Wunderground v.1.15,2014-12-22 20:35:00,
2014-12-22 13:40:00,31.8,22.1,29.77,WSW,256,9.0,13.0,67,0.00,,,0.00,Wunderground v.1.15,2014-12-22 20:40:00,
2014-12-22 13:46:00,31.9,21.8,29.76,NW,312,8.0,13.0,66,0.00,,,0.00,Wunderground v.1.15,2014-12-22 20:46:00,
2014-12-22 13:51:00,31.9,21.1,29.76,WNW,284,6.0,7.0,64,0.00,,,0.00,Wunderground v.1.15,2014-12-22 20:51:00,
2014-12-22 13:57:00,32.1,21.3,29.76,WNW,282,7.0,13.0,64,0.00,,,0.00,Wunderground v.1.15,2014-12-22 20:57:00,
2014-12-22 14:02:00,32.1,22.0,29.77,NW,323,7.0,9.0,66,0.00,,,0.00,Wunderground v.1.15,2014-12-22 21:02:00,
2014-12-22 14:10:00,31.9,21.8,29.77,West,274,7.0,9.0,66,0.00,,,0.00,Wunderground v.1.15,2014-12-22 21:10:00,
2014-12-22 14:15:00,31.8,21.7,29.78,NW,322,8.0,11.0,66,0.00,,,0.00,Wunderground v.1.15,2014-12-22 21:15:00,
2014-12-22 14:21:00,31.6,21.5,29.78,WSW,253,8.0,13.0,66,0.00,,,0.00,Wunderground v.1.15,2014-12-22 21:21:00,
2014-12-22 14:26:00,31.6,21.5,29.78,WNW,296,8.0,13.0,66,0.00,,,0.00,Wunderground v.1.15,2014-12-22 21:26:00,
2014-12-22 14:31:00,31.6,21.9,29.78,NW,320,8.0,8.0,67,0.00,,,0.00,Wunderground v.1.15,2014-12-22 21:31:00,
2014-12-22 14:37:00,31.3,21.6,29.78,WNW,295,7.0,10.0,67,0.00,,,0.00,Wunderground v.1.15,2014-12-22 21:37:00,
2014-12-22 14:42:00,31.2,22.2,29.78,NW,311,5.0,5.0,69,0.00,,,0.00,Wunderground v.1.15,2014-12-22 21:42:00,
2014-12-22 14:47:00,31.0,22.4,29.81,NW,316,5.0,8.0,70,0.00,,,0.00,Wunderground v.1.15,2014-12-22 21:47:00,
2014-12-22 14:55:00,30.9,21.6,29.81,WNW,288,6.0,9.0,68,0.00,,,0.00,Wunderground v.1.15,2014-12-22 21:55:00,
2014-12-22 15:00:00,30.9,21.6,29.81,WNW,284,5.0,5.0,68,0.00,,,0.00,Wunderground v.1.15,2014-12-22 22:00:00,
2014-12-22 15:05:00,30.9,21.6,29.81,NW,319,6.0,8.0,68,0.00,,,0.00,Wunderground v.1.15,2014-12-22 22:05:00,
2014-12-22 15:11:00,30.6,22.3,29.81,NNW,330,6.0,8.0,71,0.00,,,0.00,Wunderground v.1.15,2014-12-22 22:11:00,
2014-12-22 15:16:00,30.4,22.8,29.83,NW,318,7.0,8.0,73,0.00,,,0.00,Wunderground v.1.15,2014-12-22 22:16:00,
2014-12-22 15:22:00,30.1,22.8,29.83,North,356,5.0,5.0,74,0.00,,,0.00,Wunderground v.1.15,2014-12-22 22:22:00,
2014-12-22 15:27:00,29.8,23.8,29.83,NW,316,5.0,9.0,78,0.00,,,0.00,Wunderground v.1.15,2014-12-22 22:27:00,
2014-12-22 15:32:00,29.5,23.8,29.84,NW,319,5.0,5.0,79,0.00,,,0.00,Wunderground v.1.15,2014-12-22 22:32:00,
2014-12-22 15:40:00,29.5,23.8,29.84,NW,318,3.0,6.0,79,0.00,,,0.00,Wunderground v.1.15,2014-12-22 22:40:00,
2014-12-22 15:41:00,29.4,23.7,29.84,NW,320,3.0,3.0,79,0.00,,,0.00,Wunderground v.1.15,2014-12-22 22:41:00,
2014-12-22 15:45:00,29.4,23.7,29.86,North,356,3.0,6.0,79,0.00,,,0.00,Wunderground v.1.15,2014-12-22 22:45:00,
2014-12-22 15:46:00,29.4,24.3,29.86,North,356,3.0,6.0,81,0.00,,,0.00,Wunderground v.1.15,2014-12-22 22:46:00,
2014-12-22 15:51:00,29.3,24.2,29.86,NW,319,3.0,4.0,81,0.00,,,0.00,Wunderground v.1.15,2014-12-22 22:51:00,
2014-12-22 15:56:00,29.1,24.0,29.86,NNW,329,2.0,6.0,81,0.00,,,0.00,Wunderground v.1.15,2014-12-22 22:56:00,
2014-12-22 16:01:00,29.0,23.9,29.87,NNW,329,1.0,2.0,81,0.00,,,0.00,Wunderground v.1.15,2014-12-22 23:01:00,
2014-12-22 16:07:00,29.0,23.9,29.87,NNW,329,0.0,2.0,81,0.00,,,0.00,Wunderground v.1.15,2014-12-22 23:07:00,
2014-12-22 16:12:00,29.0,23.9,29.87,NNW,329,0.0,0.0,81,0.00,,,0.00,Wunderground v.1.15,2014-12-22 23:12:00,
2014-12-22 16:17:00,29.0,23.9,29.87,NNW,329,0.0,0.0,81,0.00,,,0.00,Wunderground v.1.15,2014-12-22 23:17:00,
2014-12-22 16:22:00,29.0,23.9,29.87,NNW,329,0.0,0.0,81,0.00,,,0.00,Wunderground v.1.15,2014-12-22 23:22:00,
2014-12-22 16:30:00,29.0,24.2,29.88,NNW,340,0.0,2.0,82,0.00,,,0.00,Wunderground v.1.15,2014-12-22 23:30:00,
2014-12-22 16:35:00,29.0,24.2,29.88,North,357,1.0,2.0,82,0.00,,,0.00,Wunderground v.1.15,2014-12-22 23:35:00,
2014-12-22 16:40:00,29.0,23.9,29.88,NNW,328,1.0,1.0,81,0.00,,,0.00,Wunderground v.1.15,2014-12-22 23:40:00,
2014-12-22 16:45:00,28.8,23.7,29.88,NW,315,1.0,4.0,81,0.00,,,0.00,Wunderground v.1.15,2014-12-22 23:45:00,
2014-12-22 16:51:00,28.8,23.7,29.88,NNW,333,1.0,1.0,81,0.00,,,0.00,Wunderground v.1.15,2014-12-22 23:51:00,
2014-12-22 16:56:00,28.8,23.7,29.88,NNW,337,0.0,1.0,81,0.00,,,0.00,Wunderground v.1.15,2014-12-22 23:56:00,
2014-12-22 17:01:00,28.8,23.1,29.89,NNW,337,0.0,0.0,79,0.00,,,0.00,Wunderground v.1.15,2014-12-23 00:01:00,
2014-12-22 17:07:00,28.8,23.1,29.89,NNW,337,0.0,0.0,79,0.00,,,0.00,Wunderground v.1.15,2014-12-23 00:07:00,
2014-12-22 17:12:00,28.8,23.4,29.89,NNW,337,0.0,0.0,80,0.00,,,0.00,Wunderground v.1.15,2014-12-23 00:12:00,
2014-12-22 17:20:00,29.0,23.6,29.90,NNW,337,0.0,0.0,80,0.00,,,0.00,Wunderground v.1.15,2014-12-23 00:20:00,
2014-12-22 17:25:00,29.0,23.6,29.90,North,349,0.0,2.0,80,0.00,,,0.00,Wunderground v.1.15,2014-12-23 00:25:00,
2014-12-22 17:30:00,29.0,23.6,29.91,North,357,2.0,2.0,80,0.00,,,0.00,Wunderground v.1.15,2014-12-23 00:30:00,
2014-12-22 17:36:00,28.5,23.7,29.91,NNW,340,2.0,4.0,82,0.00,,,0.00,Wunderground v.1.15,2014-12-23 00:36:00,
2014-12-22 17:41:00,28.2,23.7,29.91,NNW,337,2.0,2.0,83,0.00,,,0.00,Wunderground v.1.15,2014-12-23 00:41:00,
2014-12-22 17:46:00,27.9,23.4,29.93,North,0,2.0,2.0,83,0.00,,,0.00,Wunderground v.1.15,2014-12-23 00:46:00,
2014-12-22 17:51:00,27.8,23.6,29.93,North,352,2.0,4.0,84,0.00,,,0.00,Wunderground v.1.15,2014-12-23 00:51:00,
2014-12-22 17:57:00,27.6,23.7,29.93,North,356,3.0,8.0,85,0.00,,,0.00,Wunderground v.1.15,2014-12-23 00:57:00,
2014-12-22 18:02:00,27.3,23.4,29.95,North,3,6.0,9.0,85,0.00,,,0.00,Wunderground v.1.15,2014-12-23 01:02:00,
2014-12-22 18:10:00,27.0,23.1,29.95,NW,311,6.0,9.0,85,0.00,,,0.00,Wunderground v.1.15,2014-12-23 01:10:00,
2014-12-22 18:15:00,26.9,23.3,29.96,NNW,328,6.0,10.0,86,0.00,,,0.00,Wunderground v.1.15,2014-12-23 01:15:00,
2014-12-22 18:20:00,26.6,23.0,29.96,WNW,295,8.0,9.0,86,0.00,,,0.00,Wunderground v.1.15,2014-12-23 01:20:00,
2014-12-22 18:26:00,26.4,23.1,29.96,NW,326,9.0,10.0,87,0.00,,,0.00,Wunderground v.1.15,2014-12-23 01:26:00,
2014-12-22 18:31:00,26.4,23.1,29.96,WNW,301,8.0,10.0,87,0.00,,,0.00,Wunderground v.1.15,2014-12-23 01:31:00,
2014-12-22 18:36:00,26.3,23.0,29.96,NW,305,7.0,10.0,87,0.00,,,0.00,Wunderground v.1.15,2014-12-23 01:36:00,
2014-12-22 18:42:00,26.1,22.8,29.96,WNW,288,6.0,9.0,87,0.00,,,0.00,Wunderground v.1.15,2014-12-23 01:42:00,
2014-12-22 18:47:00,26.1,22.8,29.97,NW,320,6.0,9.0,87,0.00,,,0.00,Wunderground v.1.15,2014-12-23 01:47:00,
2014-12-22 18:55:00,26.0,22.7,29.97,WNW,291,3.0,4.0,87,0.00,,,0.00,Wunderground v.1.15,2014-12-23 01:55:00,